Humboldt, Minnesota
Current Conditions -  °F | °C
As of 4:15 PM on Wednesday 28 Jan 2015 (Local Time) from KHCO Reporting Station
Haze Haze  
Wind Chill: 25°   Ceiling: 300
Heat Index: 34°   Visibility: 1mi
Dew Point: 32°   Wind: 13mph
Humidity: 93%   Direction: 330°NNW
Pressure: 29.83"   Gusts: NA
Location:  48.92°N, 97.09°W
Report Text: KHCO 282215Z AUTO 33011KT 1SM BR OVC003 01/00 A2983 RMK AO2
Loading
Personal Weather Stations






























Interactive Weather Map New forecast layout! Learn more

10-Day Weather Forecast

Advertisements
Track Severe Weather on mobile